Colne, United Kingdom
Current Conditions -  °F | °C
As of 3:20 AM on Sunday 28 Dec 2014 (Local Time) from EGNM Reporting Station
Scattered Clouds Scattered Clouds  
Wind Chill: 29°   Ceiling: Unl
Heat Index: 34°   Visibility: 6mi
Dew Point: 32°   Wind: 6mph
Humidity: 93%   Direction: 10°N
Pressure: 30.21"   Gusts: NA
Location:  53.86°N, 2.17°W
Report Text: EGNM 280320Z 01005KT 340V040 9999 SCT030 01/00 Q1023
Loading
Personal Weather Stations






























Interactive Weather Map New forecast layout! Learn more

10-Day Weather Forecast

Advertisements
Track Severe Weather on mobile